Time;durP1;ratioP1;P1;durP2;ratioP2;P2;SDS_P1;SDS_P2;PMS_P1;PMS_P2;Temp;Humidity;BMP_temperature;BMP_pressure;BME280_temperature;BME280_humidity;BME280_pressure;Samples;Min_cycle;Max_cycle;Signal;HPM_P1;HPM_P2
2022/06/30 00:00:05;;;;;;;64.35;37.40;;;;;;;-141.50;100.00;63355.56;5036243;28;20076;-81
2022/06/30 00:02:36;;;;;;;64.65;38.22;;;;;;;-141.50;100.00;63355.56;5043433;28;20045;-81
2022/06/30 00:05:03;;;;;;;71.55;40.70;;;;;;;-141.50;100.00;63355.56;5041773;28;20057;-79
2022/06/30 00:07:30;;;;;;;62.35;38.08;;;;;;;-141.50;100.00;63355.56;5045505;28;20077;-78
2022/06/30 00:09:57;;;;;;;72.72;40.25;;;;;;;-141.50;100.00;63355.56;5046952;28;20053;-80
2022/06/30 00:12:23;;;;;;;71.43;39.90;;;;;;;-141.50;100.00;63355.56;5046934;28;20084;-80
2022/06/30 00:14:50;;;;;;;68.40;39.60;;;;;;;-141.50;100.00;63355.56;5045612;28;20046;-79
2022/06/30 00:17:16;;;;;;;62.17;36.17;;;;;;;-141.50;100.00;63355.56;5044180;28;20049;-82
2022/06/30 00:19:45;;;;;;;67.05;38.38;;;;;;;-141.50;100.00;63355.56;5032328;28;20045;-81
2022/06/30 00:22:13;;;;;;;67.13;38.60;;;;;;;-141.50;100.00;63355.56;5044775;28;20046;-81
2022/06/30 00:24:40;;;;;;;71.75;38.97;;;;;;;-141.50;100.00;63355.56;5045781;28;20123;-80
2022/06/30 00:27:07;;;;;;;66.38;38.80;;;;;;;-141.50;100.00;63355.56;5028097;28;20073;-80
2022/06/30 00:29:34;;;;;;;66.25;37.78;;;;;;;-141.50;100.00;63355.56;5023294;28;20160;-80
2022/06/30 00:32:00;;;;;;;66.68;39.10;;;;;;;-141.50;100.00;63355.56;5043093;28;20081;-80
2022/06/30 00:34:27;;;;;;;69.57;38.80;;;;;;;-141.50;100.00;63355.56;5027045;28;20060;-80
2022/06/30 00:36:55;;;;;;;64.78;36.83;;;;;;;-141.50;100.00;63355.56;5022221;28;20140;-80
2022/06/30 00:39:22;;;;;;;67.25;37.78;;;;;;;-141.50;100.00;63355.56;5033005;28;20107;-81
2022/06/30 00:41:48;;;;;;;67.60;38.72;;;;;;;-141.50;100.00;63355.56;5019303;28;20079;-80
2022/06/30 00:44:15;;;;;;;67.43;38.60;;;;;;;-141.50;100.00;63355.56;5037438;28;20121;-80
2022/06/30 00:46:42;;;;;;;73.85;40.42;;;;;;;-141.50;100.00;63355.56;5033271;28;20099;-80
2022/06/30 00:49:09;;;;;;;69.65;39.45;;;;;;;-141.50;100.00;63355.56;5017303;28;20084;-82
2022/06/30 00:51:36;;;;;;;69.90;39.40;;;;;;;-141.50;100.00;63355.56;5034689;28;20054;-80
2022/06/30 00:54:04;;;;;;;76.50;39.72;;;;;;;-141.50;100.00;63355.56;5036322;28;20050;-81
2022/06/30 00:56:33;;;;;;;68.38;38.70;;;;;;;-141.50;100.00;63355.56;5033858;28;20046;-81
2022/06/30 00:59:05;;;;;;;66.28;37.67;;;;;;;-141.50;100.00;63355.56;5035021;28;20054;-82
2022/06/30 01:01:32;;;;;;;62.00;35.97;;;;;;;-141.50;100.00;63355.56;5036934;28;20049;-80
2022/06/30 01:04:00;;;;;;;63.35;37.22;;;;;;;-141.50;100.00;63355.56;5037121;28;20571;-81
2022/06/30 01:06:28;;;;;;;64.22;37.60;;;;;;;-141.50;100.00;63355.56;5033883;28;20175;-82
2022/06/30 01:08:56;;;;;;;68.38;38.17;;;;;;;-141.50;100.00;63355.56;5032896;28;20132;-82
2022/06/30 01:14:07;;;;;;;69.78;39.03;;;;;;;-141.50;100.00;63355.56;5033266;28;20096;-82
2022/06/30 01:16:38;;;;;;;67.75;39.08;;;;;;;-141.50;100.00;63355.56;5034471;28;20088;-81
2022/06/30 01:19:05;;;;;;;63.90;38.33;;;;;;;-141.50;100.00;63355.56;5007060;28;20050;-78
2022/06/30 01:21:32;;;;;;;62.58;38.85;;;;;;;-141.50;100.00;63355.56;5025759;28;20061;-79
2022/06/30 01:23:59;;;;;;;66.50;38.22;;;;;;;-141.50;100.00;63355.56;5033036;28;20054;-81
2022/06/30 01:26:27;;;;;;;67.05;37.60;;;;;;;-141.50;100.00;63355.56;5033290;28;20072;-80
2022/06/30 01:28:53;;;;;;;66.90;39.17;;;;;;;-141.50;100.00;63355.56;5016424;28;20080;-81
2022/06/30 01:31:20;;;;;;;70.70;38.38;;;;;;;-141.50;100.00;63355.56;5033322;28;20084;-81
2022/06/30 01:33:47;;;;;;;65.80;38.58;;;;;;;-141.50;100.00;63355.56;5016064;28;20152;-83
2022/06/30 01:36:13;;;;;;;71.72;40.28;;;;;;;-141.50;100.00;63355.56;5019482;28;20128;-79
2022/06/30 01:38:40;;;;;;;74.38;41.38;;;;;;;-141.50;100.00;63355.56;5023939;28;20160;-79
2022/06/30 01:41:07;;;;;;;69.30;39.63;;;;;;;-141.50;100.00;63355.56;5023549;28;20587;-78
2022/06/30 01:43:34;;;;;;;77.78;42.90;;;;;;;-141.50;100.00;63355.56;5025409;28;20349;-79
2022/06/30 01:46:00;;;;;;;68.65;41.60;;;;;;;-141.50;100.00;63355.56;5020864;28;20084;-79
2022/06/30 01:48:27;;;;;;;72.10;41.75;;;;;;;-141.50;100.00;63355.56;5033947;28;20517;-82
2022/06/30 01:50:53;;;;;;;72.40;41.58;;;;;;;-141.50;100.00;63355.56;5033398;28;20124;-82
2022/06/30 01:53:20;;;;;;;75.53;42.83;;;;;;;-141.50;100.00;63355.56;5034399;28;20041;-81
2022/06/30 01:55:47;;;;;;;76.63;43.28;;;;;;;-141.50;100.00;63355.56;5034262;28;20088;-79
2022/06/30 01:58:13;;;;;;;79.70;44.55;;;;;;;-141.50;100.00;63355.56;5024341;28;20066;-82
2022/06/30 02:00:40;;;;;;;79.47;41.90;;;;;;;-141.50;100.00;63355.56;5013495;28;20673;-81
2022/06/30 02:03:06;;;;;;;71.88;40.85;;;;;;;-141.50;100.00;63355.56;5016917;28;20137;-81
2022/06/30 02:05:33;;;;;;;77.20;43.10;;;;;;;-141.50;100.00;63355.56;5013729;28;20058;-83
2022/06/30 02:08:00;;;;;;;76.25;44.25;;;;;;;-141.50;100.00;63355.56;5012887;28;20141;-84
2022/06/30 02:10:26;;;;;;;76.97;44.17;;;;;;;-141.50;100.00;63355.56;5013661;28;20180;-82
2022/06/30 02:12:53;;;;;;;76.22;42.53;;;;;;;-141.50;100.00;63355.56;5013951;28;20191;-81
2022/06/30 02:15:36;;;;;;;86.93;44.10;;;;;;;-141.50;100.00;63355.56;5016259;28;20104;-81
2022/06/30 02:18:08;;;;;;;98.15;45.15;;;;;;;-141.50;100.00;63355.56;5018171;28;20227;-82
2022/06/30 02:20:35;;;;;;;84.07;44.60;;;;;;;-141.50;100.00;63355.56;5020075;28;20046;-82
2022/06/30 02:23:03;;;;;;;88.03;45.75;;;;;;;-141.50;100.00;63355.56;4995609;28;20111;-83
2022/06/30 02:25:32;;;;;;;91.28;46.58;;;;;;;-141.50;100.00;63355.56;4994938;28;20109;-81
2022/06/30 02:27:59;;;;;;;91.75;46.63;;;;;;;-141.50;100.00;63355.56;5012426;28;20519;-81
2022/06/30 02:30:25;;;;;;;99.45;48.28;;;;;;;-141.50;100.00;63355.56;4995348;28;20050;-79
2022/06/30 02:32:52;;;;;;;94.20;47.25;;;;;;;-141.50;100.00;63355.56;5012213;28;20085;-81
2022/06/30 02:35:19;;;;;;;91.28;46.17;;;;;;;-141.50;100.00;63355.56;5012703;28;20109;-82
2022/06/30 02:37:46;;;;;;;99.45;46.50;;;;;;;-141.50;100.00;63355.56;5012355;28;20089;-82
2022/06/30 02:40:13;;;;;;;102.65;47.53;;;;;;;-141.50;100.00;63355.56;4994318;28;20518;-82
2022/06/30 02:42:40;;;;;;;98.90;46.28;;;;;;;-141.50;100.00;63355.56;4993294;28;20510;-81
2022/06/30 02:45:07;;;;;;;102.93;48.42;;;;;;;-141.50;100.00;63355.56;4993153;28;20127;-81
2022/06/30 02:47:36;;;;;;;112.57;49.97;;;;;;;-141.50;100.00;63355.56;5012648;28;20129;-81
2022/06/30 02:50:05;;;;;;;112.90;47.50;;;;;;;-141.50;100.00;63355.56;4994864;28;20514;-81
2022/06/30 02:52:33;;;;;;;95.43;45.78;;;;;;;-141.50;100.00;63355.56;4995641;28;20058;-83
2022/06/30 02:55:01;;;;;;;104.38;46.55;;;;;;;-141.50;100.00;63355.56;5014462;28;20050;-82
2022/06/30 02:57:28;;;;;;;106.93;47.45;;;;;;;-141.50;100.00;63355.56;5014637;28;20050;-81
2022/06/30 02:59:55;;;;;;;109.05;48.40;;;;;;;-141.50;100.00;63355.56;5011872;28;20475;-81
2022/06/30 03:02:22;;;;;;;105.00;47.13;;;;;;;-141.50;100.00;63355.56;4994326;28;20085;-81
2022/06/30 03:04:49;;;;;;;100.68;46.50;;;;;;;-141.50;100.00;63355.56;5016972;28;20081;-80
2022/06/30 03:07:17;;;;;;;108.38;47.17;;;;;;;-141.50;100.00;63355.56;5015356;28;20058;-82
2022/06/30 03:09:43;;;;;;;106.35;47.60;;;;;;;-141.50;100.00;63355.56;4994221;28;20537;-82
2022/06/30 03:12:10;;;;;;;104.10;44.53;;;;;;;-141.50;100.00;63355.56;4994787;28;20049;-82
2022/06/30 03:14:37;;;;;;;101.20;45.33;;;;;;;-141.50;100.00;63355.56;4994469;28;20474;-81
2022/06/30 03:17:04;;;;;;;104.40;47.67;;;;;;;-141.50;100.00;63355.56;5029978;28;20149;-83
2022/06/30 03:19:30;;;;;;;103.70;45.53;;;;;;;-141.50;100.00;63355.56;4998809;28;20069;-82
2022/06/30 03:21:57;;;;;;;102.95;45.33;;;;;;;-141.50;100.00;63355.56;4998262;28;20049;-84
2022/06/30 03:24:23;;;;;;;96.55;43.95;;;;;;;-141.50;100.00;63355.56;5012326;28;20060;-82
2022/06/30 03:26:51;;;;;;;107.32;46.95;;;;;;;-141.50;100.00;63355.56;4995237;28;20145;-82
2022/06/30 03:29:17;;;;;;;105.78;47.10;;;;;;;-141.50;100.00;63355.56;4996205;28;20108;-82
2022/06/30 03:31:44;;;;;;;99.75;44.65;;;;;;;-141.50;100.00;63355.56;5015972;28;20108;-82
2022/06/30 03:34:11;;;;;;;99.85;45.72;;;;;;;-141.50;100.00;63355.56;5024686;28;20041;-82
2022/06/30 03:36:37;;;;;;;103.40;45.50;;;;;;;-141.50;100.00;63355.56;5026865;28;20077;-81
2022/06/30 03:39:04;;;;;;;98.82;43.97;;;;;;;-141.50;100.00;63355.56;5044856;28;20277;-79
2022/06/30 03:41:31;;;;;;;101.25;44.20;;;;;;;-141.50;100.00;63355.56;5045675;28;20060;-79
2022/06/30 03:43:58;;;;;;;96.00;45.03;;;;;;;-141.50;100.00;63355.56;5045115;28;20117;-79
2022/06/30 03:46:24;;;;;;;99.75;45.70;;;;;;;-141.50;100.00;63355.56;5029047;28;20057;-80
2022/06/30 03:48:51;;;;;;;93.57;44.17;;;;;;;-141.50;100.00;63355.56;5030457;28;20516;-82
2022/06/30 03:51:18;;;;;;;112.82;48.45;;;;;;;-141.50;100.00;63355.56;5004754;28;20414;-82
2022/06/30 03:53:44;;;;;;;108.95;48.00;;;;;;;-141.50;100.00;63355.56;5015200;28;20085;-81
2022/06/30 03:56:11;;;;;;;106.38;47.10;;;;;;;-141.50;100.00;63355.56;5034707;28;20128;-82
2022/06/30 03:58:37;;;;;;;101.13;46.10;;;;;;;-141.50;100.00;63355.56;5033814;28;20050;-81
2022/06/30 04:01:04;;;;;;;97.82;44.67;;;;;;;-141.50;100.00;63355.56;5033682;28;20647;-82
2022/06/30 04:03:31;;;;;;;92.93;43.92;;;;;;;-141.50;100.00;63355.56;5019077;28;20050;-80
2022/06/30 04:05:57;;;;;;;94.07;43.75;;;;;;;-141.50;100.00;63355.56;5050225;28;20045;-81
2022/06/30 04:08:24;;;;;;;96.15;44.58;;;;;;;-141.50;100.00;63355.56;5025787;28;20066;-82
2022/06/30 04:10:51;;;;;;;100.90;46.67;;;;;;;-141.50;100.00;63355.56;5020135;28;20053;-82
2022/06/30 04:13:18;;;;;;;106.05;45.03;;;;;;;-141.50;100.00;63355.56;5018384;28;20056;-82
2022/06/30 04:15:45;;;;;;;103.47;47.47;;;;;;;-141.50;100.00;63355.56;5017528;28;20069;-82
2022/06/30 04:18:12;;;;;;;102.75;45.25;;;;;;;-141.50;100.00;63355.56;5024072;28;20076;-82
2022/06/30 04:20:38;;;;;;;105.55;46.95;;;;;;;-141.50;100.00;63355.56;5006728;28;20072;-82
2022/06/30 04:23:05;;;;;;;99.10;46.97;;;;;;;-141.50;100.00;63355.56;5016114;28;20050;-82
2022/06/30 04:25:33;;;;;;;102.15;45.92;;;;;;;-141.50;100.00;63355.56;5000243;28;20114;-82
2022/06/30 04:28:00;;;;;;;102.88;46.03;;;;;;;-141.50;100.00;63355.56;5015505;28;20050;-83
2022/06/30 04:33:13;;;;;;;109.00;47.75;;;;;;;-141.50;100.00;63355.56;5015298;28;20053;-83
2022/06/30 04:35:40;;;;;;;111.85;47.90;;;;;;;-141.50;100.00;63355.56;5017257;28;20418;-84
2022/06/30 04:38:07;;;;;;;112.95;48.13;;;;;;;-141.50;100.00;63355.56;5002700;28;20049;-84
2022/06/30 04:43:19;;;;;;;106.07;47.42;;;;;;;-141.50;100.00;63355.56;5022618;28;20045;-84
2022/06/30 04:45:45;;;;;;;111.68;47.33;;;;;;;-141.50;100.00;63355.56;5023675;28;20057;-83
2022/06/30 04:48:12;;;;;;;116.47;49.22;;;;;;;-141.50;100.00;63355.56;5022843;28;20112;-83
2022/06/30 04:50:39;;;;;;;105.88;45.45;;;;;;;-141.50;100.00;63355.56;5005596;28;20127;-85
2022/06/30 04:53:07;;;;;;;100.47;44.97;;;;;;;-141.50;100.00;63355.56;5020589;28;20050;-83
2022/06/30 04:55:33;;;;;;;97.65;45.35;;;;;;;-141.50;100.00;63355.56;5022634;28;20084;-84
2022/06/30 04:58:00;;;;;;;107.25;46.45;;;;;;;-141.50;100.00;63355.56;5022574;28;20073;-83
2022/06/30 05:00:27;;;;;;;106.03;45.88;;;;;;;-141.50;100.00;63355.56;5003016;28;20058;-83
2022/06/30 05:02:53;;;;;;;110.35;46.58;;;;;;;-141.50;100.00;63355.56;5021737;28;20085;-82
2022/06/30 05:05:20;;;;;;;105.97;48.33;;;;;;;-141.50;100.00;63355.56;5009031;28;20077;-82
2022/06/30 05:07:47;;;;;;;103.95;46.05;;;;;;;-141.50;100.00;63355.56;5028499;28;20072;-84
2022/06/30 05:10:13;;;;;;;106.38;46.53;;;;;;;-141.50;100.00;63355.56;5014375;28;20054;-84
2022/06/30 05:12:40;;;;;;;99.30;45.35;;;;;;;-141.50;100.00;63355.56;5012391;28;20089;-82
2022/06/30 05:15:07;;;;;;;108.88;46.10;;;;;;;-141.50;100.00;63355.56;4996403;28;20696;-84
2022/06/30 05:17:34;;;;;;;104.45;46.25;;;;;;;-141.50;100.00;63355.56;5020441;28;20077;-84
2022/06/30 05:20:01;;;;;;;118.22;49.55;;;;;;;-141.50;100.00;63355.56;5025360;28;20060;-81
2022/06/30 05:22:27;;;;;;;125.90;50.92;;;;;;;-141.50;100.00;63355.56;5037715;28;20057;-82
2022/06/30 05:27:39;;;;;;;113.47;46.25;;;;;;;-141.50;100.00;63355.56;5039136;28;20045;-81
2022/06/30 05:30:07;;;;;;;93.47;42.60;;;;;;;-141.50;100.00;63355.56;5038183;28;20149;-80
2022/06/30 05:32:34;;;;;;;90.32;40.67;;;;;;;-141.50;100.00;63355.56;5036967;28;20136;-80
2022/06/30 05:35:01;;;;;;;82.47;39.15;;;;;;;-141.50;100.00;63355.56;5038905;28;20046;-80
2022/06/30 05:37:27;;;;;;;83.88;37.53;;;;;;;-141.50;100.00;63355.56;5037611;28;20049;-82
2022/06/30 05:39:54;;;;;;;79.57;38.78;;;;;;;-141.50;100.00;63355.56;5023233;28;20053;-80
2022/06/30 05:42:20;;;;;;;84.63;38.90;;;;;;;-141.50;100.00;63355.56;5038140;28;20056;-82
2022/06/30 05:44:48;;;;;;;72.07;35.85;;;;;;;-141.50;100.00;63355.56;5031561;28;20136;-82
2022/06/30 05:47:17;;;;;;;64.63;33.38;;;;;;;-141.50;100.00;63355.56;5013452;28;20556;-80
2022/06/30 05:49:43;;;;;;;64.13;32.47;;;;;;;-141.50;100.00;63355.56;5015392;28;20064;-81
2022/06/30 05:52:10;;;;;;;59.10;31.02;;;;;;;-141.50;100.00;63355.56;5031118;28;20625;-83
2022/06/30 05:54:37;;;;;;;55.28;30.25;;;;;;;-141.50;100.00;63355.56;5030962;28;20139;-81
2022/06/30 05:57:04;;;;;;;56.97;30.17;;;;;;;-141.50;100.00;63355.56;5016185;28;20268;-82
2022/06/30 05:59:32;;;;;;;58.55;30.50;;;;;;;-141.50;100.00;63355.56;5032462;28;20541;-82
2022/06/30 06:01:59;;;;;;;57.75;31.95;;;;;;;-141.50;100.00;63355.56;5032026;28;20468;-83
2022/06/30 06:04:26;;;;;;;62.60;32.13;;;;;;;-141.50;100.00;63355.56;5032132;28;20049;-83
2022/06/30 06:06:53;;;;;;;58.65;31.15;;;;;;;-141.50;100.00;63355.56;5014941;28;20049;-83
2022/06/30 06:09:19;;;;;;;65.65;33.50;;;;;;;-141.50;100.00;63355.56;5014894;28;20128;-83
2022/06/30 06:11:46;;;;;;;68.07;34.55;;;;;;;-141.50;100.00;63355.56;5033891;28;20053;-82
2022/06/30 06:14:13;;;;;;;66.93;33.65;;;;;;;-141.50;100.00;63355.56;5019617;28;20107;-85
2022/06/30 06:16:39;;;;;;;60.25;33.03;;;;;;;-141.50;100.00;63355.56;5025042;28;20045;-83
2022/06/30 06:19:09;;;;;;;59.78;32.45;;;;;;;-141.50;100.00;63355.56;5037293;28;20053;-81
2022/06/30 06:21:36;;;;;;;59.75;31.70;;;;;;;-141.50;100.00;63355.56;5040756;28;20072;-84
2022/06/30 06:24:03;;;;;;;57.30;31.73;;;;;;;-141.50;100.00;63355.56;5038648;28;20637;-83
2022/06/30 06:26:29;;;;;;;53.70;30.02;;;;;;;-141.50;100.00;63355.56;5033612;28;20132;-83
2022/06/30 06:29:07;;;;;;;59.72;31.67;;;;;;;-141.50;100.00;63355.56;5033038;28;20052;-83
2022/06/30 06:31:37;;;;;;;62.90;33.42;;;;;;;-141.50;100.00;63355.56;5032405;28;20144;-81
2022/06/30 06:34:04;;;;;;;50.72;29.45;;;;;;;-141.50;100.00;63355.56;5033034;28;20132;-83
2022/06/30 06:36:31;;;;;;;55.72;31.55;;;;;;;-141.50;100.00;63355.56;5015328;28;20049;-83
2022/06/30 06:38:59;;;;;;;64.28;34.97;;;;;;;-141.50;100.00;63355.56;5014668;28;20080;-83
2022/06/30 06:41:25;;;;;;;61.42;34.70;;;;;;;-141.50;100.00;63355.56;5012963;28;20104;-82
2022/06/30 06:43:52;;;;;;;63.20;33.78;;;;;;;-141.50;100.00;63355.56;5012427;28;20138;-84
2022/06/30 06:46:22;;;;;;;56.50;33.47;;;;;;;-141.50;100.00;63355.56;4994588;28;20058;-82
2022/06/30 06:48:49;;;;;;;54.42;30.90;;;;;;;-141.50;100.00;63355.56;5012232;28;20064;-81
2022/06/30 06:51:16;;;;;;;56.55;31.88;;;;;;;-141.50;100.00;63355.56;5011488;28;20050;-82
2022/06/30 06:53:43;;;;;;;49.15;28.27;;;;;;;-141.50;100.00;63355.56;4992847;28;20153;-81
2022/06/30 06:56:09;;;;;;;43.65;26.77;;;;;;;-141.50;100.00;63355.56;5020958;28;20077;-82
2022/06/30 06:58:36;;;;;;;40.78;24.70;;;;;;;-141.50;100.00;63355.56;5017431;28;20348;-81
2022/06/30 07:01:04;;;;;;;41.95;23.80;;;;;;;-141.50;100.00;63355.56;5010480;28;20054;-82
2022/06/30 07:03:32;;;;;;;43.08;24.73;;;;;;;-141.50;100.00;63355.56;5011058;28;20057;-82
2022/06/30 07:05:59;;;;;;;34.08;22.23;;;;;;;-141.50;100.00;63355.56;4993009;28;20045;-81
2022/06/30 07:08:25;;;;;;;39.17;22.88;;;;;;;-141.50;100.00;63355.56;4993491;28;20152;-82
2022/06/30 07:10:53;;;;;;;39.05;22.60;;;;;;;-141.50;100.00;63355.56;4993781;28;20110;-82
2022/06/30 07:13:20;;;;;;;35.75;22.67;;;;;;;-141.50;100.00;63355.56;5016948;28;20085;-83
2022/06/30 07:15:47;;;;;;;33.63;23.00;;;;;;;-141.50;100.00;63355.56;5017184;28;20069;-85
2022/06/30 07:18:13;;;;;;;38.25;23.38;;;;;;;-141.50;100.00;63355.56;5024068;28;20072;-85
2022/06/30 07:20:40;;;;;;;38.35;22.77;;;;;;;-141.50;100.00;63355.56;5026985;28;20096;-84
2022/06/30 07:23:06;;;;;;;35.28;22.02;;;;;;;-141.50;100.00;63355.56;5046377;28;20056;-82
2022/06/30 07:25:53;;;;;;;33.55;20.52;;;;;;;-141.50;100.00;63355.56;5021866;28;20050;-85
2022/06/30 07:28:19;;;;;;;40.17;22.48;;;;;;;-141.50;100.00;63355.56;5019654;28;20099;-85
2022/06/30 07:31:07;;;;;;;35.95;22.83;;;;;;;-141.50;100.00;63355.56;5021283;28;20436;-83
2022/06/30 07:33:34;;;;;;;35.47;22.80;;;;;;;-141.50;100.00;63355.56;5018210;28;20132;-86
2022/06/30 07:36:01;;;;;;;32.17;21.35;;;;;;;-141.50;100.00;63355.56;5035300;28;20045;-84
2022/06/30 07:38:27;;;;;;;41.83;23.73;;;;;;;-141.50;100.00;63355.56;5035941;28;20147;-83
2022/06/30 07:40:54;;;;;;;36.95;22.92;;;;;;;-141.50;100.00;63355.56;5034534;28;20100;-83
2022/06/30 07:43:21;;;;;;;40.35;23.45;;;;;;;-141.50;100.00;63355.56;5015453;28;20084;-83
2022/06/30 07:45:47;;;;;;;36.58;23.55;;;;;;;-141.50;100.00;63355.56;5016478;28;20085;-85
2022/06/30 07:48:14;;;;;;;36.97;22.95;;;;;;;-141.50;100.00;63355.56;5015067;28;20132;-83
2022/06/30 07:50:41;;;;;;;42.42;22.92;;;;;;;-141.50;100.00;63355.56;5032513;28;20125;-81
2022/06/30 07:53:08;;;;;;;32.50;22.15;;;;;;;-141.50;100.00;63355.56;5016369;28;20077;-83
2022/06/30 07:55:35;;;;;;;35.17;21.48;;;;;;;-141.50;100.00;63355.56;5035419;28;20049;-86
2022/06/30 07:58:01;;;;;;;40.80;24.10;;;;;;;-141.50;100.00;63355.56;5035246;28;20072;-85
2022/06/30 08:00:28;;;;;;;37.35;22.65;;;;;;;-141.50;100.00;63355.56;5035004;28;20062;-84
2022/06/30 08:02:54;;;;;;;35.78;22.17;;;;;;;-141.50;100.00;63355.56;5035186;28;20053;-83
2022/06/30 08:05:21;;;;;;;44.67;23.35;;;;;;;-141.50;100.00;63355.56;5034651;28;20561;-83
2022/06/30 08:07:48;;;;;;;39.20;22.73;;;;;;;-141.50;100.00;63355.56;5034870;28;20053;-82
2022/06/30 08:10:14;;;;;;;35.70;21.42;;;;;;;-141.50;100.00;63355.56;5034960;28;20077;-82
2022/06/30 08:12:41;;;;;;;41.17;21.23;;;;;;;-141.50;100.00;63355.56;5017495;28;20099;-82
2022/06/30 08:15:08;;;;;;;40.38;23.50;;;;;;;-141.50;100.00;63355.56;5039202;28;20102;-81
2022/06/30 08:17:34;;;;;;;39.85;22.65;;;;;;;-141.50;100.00;63355.56;5034386;28;20065;-84
2022/06/30 08:20:01;;;;;;;37.58;22.20;;;;;;;-141.50;100.00;63355.56;5006388;28;20077;-84
2022/06/30 08:22:27;;;;;;;33.92;21.00;;;;;;;-141.50;100.00;63355.56;5035064;28;20056;-83
2022/06/30 08:24:55;;;;;;;32.25;21.27;;;;;;;-141.50;100.00;63355.56;5034577;28;20136;-83
2022/06/30 08:27:21;;;;;;;34.95;21.63;;;;;;;-141.50;100.00;63355.56;5016553;28;20084;-82
2022/06/30 08:29:48;;;;;;;36.17;21.65;;;;;;;-141.50;100.00;63355.56;5017208;28;20073;-82
2022/06/30 08:32:15;;;;;;;38.10;22.70;;;;;;;-141.50;100.00;63355.56;5015968;28;20057;-81
2022/06/30 08:34:41;;;;;;;36.33;22.75;;;;;;;-141.50;100.00;63355.56;5031229;28;20049;-82
2022/06/30 08:37:08;;;;;;;40.67;21.77;;;;;;;-141.50;100.00;63355.56;5032424;28;20457;-80
2022/06/30 08:42:21;;;;;;;35.65;22.83;;;;;;;-141.50;100.00;63355.56;5031735;28;20095;-82
2022/06/30 08:47:34;;;;;;;38.28;22.90;;;;;;;-141.50;100.00;63355.56;5031709;28;20084;-84
2022/06/30 08:50:01;;;;;;;40.65;23.63;;;;;;;-141.50;100.00;63355.56;5032352;28;20073;-80
2022/06/30 08:52:30;;;;;;;36.63;20.65;;;;;;;-141.50;100.00;63355.56;5014956;28;20083;-81
2022/06/30 08:54:58;;;;;;;32.20;20.77;;;;;;;-141.50;100.00;63355.56;5035677;28;20072;-81
2022/06/30 08:57:26;;;;;;;36.78;21.48;;;;;;;-141.50;100.00;63355.56;5021480;28;20168;-86
2022/06/30 08:59:52;;;;;;;37.53;20.92;;;;;;;-141.50;100.00;63355.56;5024514;28;20049;-83
2022/06/30 09:02:19;;;;;;;33.33;20.67;;;;;;;-141.50;100.00;63355.56;5025993;28;20046;-85
2022/06/30 09:04:46;;;;;;;42.35;22.50;;;;;;;-141.50;100.00;63355.56;5018804;28;20427;-86
2022/06/30 09:07:12;;;;;;;31.35;20.30;;;;;;;-141.50;100.00;63355.56;5042336;28;20087;-83
2022/06/30 09:09:39;;;;;;;35.17;21.77;;;;;;;-141.50;100.00;63355.56;5036597;28;20053;-83
2022/06/30 09:12:14;;;;;;;36.03;20.38;;;;;;;-141.50;100.00;63355.56;5036883;28;20135;-83
2022/06/30 09:14:47;;;;;;;44.47;22.35;;;;;;;-141.50;100.00;63355.56;5037724;28;20050;-82
2022/06/30 09:17:17;;;;;;;37.13;21.45;;;;;;;-141.50;100.00;63355.56;5036564;28;20073;-82
2022/06/30 09:19:51;;;;;;;33.35;19.65;;;;;;;-141.50;100.00;63355.56;5007353;28;20056;-83
2022/06/30 09:22:17;;;;;;;32.85;19.83;;;;;;;-141.50;100.00;63355.56;5011612;28;20080;-84
2022/06/30 09:24:44;;;;;;;29.98;18.33;;;;;;;-141.50;100.00;63355.56;5031980;28;20100;-83
2022/06/30 09:27:19;;;;;;;29.73;17.55;;;;;;;-141.50;100.00;63355.56;5014815;28;20467;-83
2022/06/30 09:29:46;;;;;;;28.65;15.88;;;;;;;-141.50;100.00;63355.56;5016477;28;20062;-82
2022/06/30 09:32:56;;;;;;;23.85;15.68;;;;;;;-141.50;100.00;63355.56;5032203;28;20050;-84
2022/06/30 09:35:30;;;;;;;22.10;15.63;;;;;;;-141.50;100.00;63355.56;5032809;28;20049;-84
2022/06/30 09:38:02;;;;;;;22.45;16.10;;;;;;;-141.50;100.00;63355.56;5037948;28;20049;-82
2022/06/30 09:40:31;;;;;;;25.95;15.40;;;;;;;-141.50;100.00;63355.56;5029644;28;20053;-82
2022/06/30 09:42:58;;;;;;;21.90;14.90;;;;;;;-141.50;100.00;63355.56;5040437;28;20045;-83
2022/06/30 09:45:42;;;;;;;21.13;14.23;;;;;;;-141.50;100.00;63355.56;5026915;28;20121;-84
2022/06/30 09:48:11;;;;;;;19.52;13.35;;;;;;;-141.50;100.00;63355.56;5043742;28;20073;-84
2022/06/30 09:50:37;;;;;;;21.45;14.82;;;;;;;-141.50;100.00;63355.56;5043862;28;20054;-82
2022/06/30 09:53:13;;;;;;;23.52;14.73;;;;;;;-141.50;100.00;63355.56;5037257;28;20057;-83
2022/06/30 09:55:43;;;;;;;18.48;13.95;;;;;;;-141.50;100.00;63355.56;5019659;28;20041;-84
2022/06/30 09:58:11;;;;;;;27.33;14.70;;;;;;;-141.50;100.00;63355.56;5016619;28;20055;-85
2022/06/30 10:00:49;;;;;;;20.77;14.68;;;;;;;-141.50;100.00;63355.56;5033770;28;20073;-85
2022/06/30 10:03:17;;;;;;;24.50;16.00;;;;;;;-141.50;100.00;63355.56;5034657;28;20550;-82
2022/06/30 10:05:48;;;;;;;23.42;16.38;;;;;;;-141.50;100.00;63355.56;5036328;28;20133;-82
2022/06/30 10:08:18;;;;;;;27.35;16.05;;;;;;;-141.50;100.00;63355.56;5032667;28;20061;-81
2022/06/30 10:10:45;;;;;;;26.10;17.73;;;;;;;-141.50;100.00;63355.56;5041403;28;20073;-82
2022/06/30 10:13:16;;;;;;;26.20;16.50;;;;;;;-141.50;100.00;63355.56;5031866;28;20195;-82
2022/06/30 10:15:55;;;;;;;28.83;17.83;;;;;;;-141.50;100.00;63355.56;5051131;28;20080;-84
2022/06/30 10:18:25;;;;;;;24.20;16.08;;;;;;;-141.50;100.00;63355.56;5038102;28;20088;-84
2022/06/30 10:20:53;;;;;;;26.90;16.17;;;;;;;-141.50;100.00;63355.56;5003950;28;20046;-83
2022/06/30 10:23:21;;;;;;;26.45;15.35;;;;;;;-141.50;100.00;63355.56;4997034;28;20105;-84
2022/06/30 10:25:49;;;;;;;25.13;15.77;;;;;;;-141.50;100.00;63355.56;4996809;28;20133;-84
2022/06/30 10:28:21;;;;;;;24.50;15.20;;;;;;;-141.50;100.00;63355.56;4996691;28;20050;-85
2022/06/30 10:30:48;;;;;;;21.50;14.43;;;;;;;-141.50;100.00;63355.56;4995253;28;20649;-84
2022/06/30 10:33:22;;;;;;;24.65;15.50;;;;;;;-141.50;100.00;63355.56;5010232;28;20050;-82
2022/06/30 10:36:08;;;;;;;21.65;14.32;;;;;;;-141.50;100.00;63355.56;5010470;28;20129;-83
2022/06/30 10:38:46;;;;;;;24.17;15.52;;;;;;;-141.50;100.00;63355.56;5011142;28;20096;-84
2022/06/30 10:41:15;;;;;;;19.65;14.50;;;;;;;-141.50;100.00;63355.56;5012420;28;20053;-85
2022/06/30 10:44:04;;;;;;;17.90;13.50;;;;;;;-141.50;100.00;63355.56;4994797;28;20099;-82
2022/06/30 10:46:45;;;;;;;22.63;15.75;;;;;;;-141.50;100.00;63355.56;5011633;28;20415;-83
2022/06/30 10:49:13;;;;;;;22.27;13.57;;;;;;;-141.50;100.00;63355.56;4997025;28;20046;-85
2022/06/30 10:51:41;;;;;;;23.35;15.25;;;;;;;-141.50;100.00;63355.56;5015318;28;20080;-83
2022/06/30 10:54:08;;;;;;;24.30;14.80;;;;;;;-141.50;100.00;63355.56;5011361;28;20084;-82
2022/06/30 10:56:51;;;;;;;18.95;13.30;;;;;;;-141.50;100.00;63355.56;5011711;28;20605;-82
2022/06/30 10:59:27;;;;;;;23.15;13.60;;;;;;;-141.50;100.00;63355.56;5006977;28;20054;-84
2022/06/30 11:04:37;;;;;;;23.95;11.43;;;;;;;-141.50;100.00;63355.56;5027966;28;20073;-84
2022/06/30 11:07:09;;;;;;;20.17;11.77;;;;;;;-141.50;100.00;63355.56;5008809;28;20046;-83
2022/06/30 11:09:44;;;;;;;16.30;11.52;;;;;;;-141.50;100.00;63355.56;5026219;28;20160;-84
2022/06/30 11:12:12;;;;;;;19.17;12.35;;;;;;;-141.50;100.00;63355.56;5009006;28;20118;-84
2022/06/30 11:14:53;;;;;;;21.60;13.07;;;;;;;-141.50;100.00;63355.56;5014008;28;20050;-82